createdAt,value
2018-08-24T00:00:57.073Z,71.62
2018-08-24T00:01:57.565Z,71.15
2018-08-24T00:02:57.709Z,71.23
2018-08-24T00:03:57.991Z,71.32
2018-08-24T00:04:58.295Z,71.32
2018-08-24T00:05:58.596Z,71.08
2018-08-24T00:06:59.115Z,71.10
2018-08-24T00:07:59.387Z,71.42
2018-08-24T00:09:00.372Z,71.16
2018-08-24T00:10:00.894Z,71.18
2018-08-24T00:11:01.862Z,71.17
2018-08-24T00:12:02.315Z,70.90
2018-08-24T00:13:02.634Z,71.09
2018-08-24T00:14:02.987Z,70.88
2018-08-24T00:15:03.566Z,71.05
2018-08-24T00:16:04.211Z,70.95
2018-08-24T00:17:04.545Z,70.96
2018-08-24T00:18:05.005Z,71.12
2018-08-24T00:19:05.353Z,71.36
2018-08-24T00:20:05.772Z,71.17
2018-08-24T00:21:06.149Z,71.05
2018-08-24T00:22:06.696Z,71.52
2018-08-24T00:23:07.141Z,71.27
2018-08-24T00:24:07.480Z,71.47
2018-08-24T00:25:07.712Z,71.42
2018-08-24T00:26:08.040Z,71.48
2018-08-24T00:27:08.371Z,71.42
2018-08-24T00:28:08.668Z,71.40
2018-08-24T00:29:09.023Z,71.74
2018-08-24T00:30:09.296Z,71.93
2018-08-24T00:31:09.532Z,71.95
2018-08-24T00:32:10.022Z,71.94
2018-08-24T00:33:10.443Z,72.20
2018-08-24T00:34:10.799Z,72.35
2018-08-24T00:35:11.524Z,72.61
2018-08-24T00:36:11.837Z,72.57
2018-08-24T00:37:12.117Z,72.82
2018-08-24T00:38:12.677Z,73.29
2018-08-24T00:39:12.957Z,73.61
2018-08-24T00:40:13.400Z,74.02
2018-08-24T00:40:22.334Z,74.09
2018-08-24T00:41:22.781Z,74.06
2018-08-24T00:42:23.341Z,74.62
2018-08-24T00:43:23.725Z,74.80
2018-08-24T00:44:24.072Z,74.86
2018-08-24T00:45:24.581Z,75.36
2018-08-24T00:46:25.039Z,75.31
2018-08-24T00:47:25.292Z,75.35
2018-08-24T00:48:25.520Z,75.44
2018-08-24T00:49:25.870Z,75.55
2018-08-24T00:50:26.411Z,75.47
2018-08-24T00:51:25.768Z,75.68
2018-08-24T00:52:27.164Z,75.51
2018-08-24T00:53:27.448Z,75.69
2018-08-24T00:54:27.793Z,75.28
2018-08-24T00:55:28.032Z,75.13
2018-08-24T00:56:28.385Z,75.50
2018-08-24T00:57:28.665Z,75.60
2018-08-24T00:58:28.968Z,75.75
2018-08-24T00:59:29.215Z,75.80
2018-08-24T01:00:29.601Z,75.93
2018-08-24T01:01:29.872Z,76.12
2018-08-24T01:02:30.304Z,76.10
2018-08-24T01:03:30.828Z,76.20
2018-08-24T01:04:31.762Z,76.12
2018-08-24T01:05:31.997Z,76.41
2018-08-24T01:06:32.264Z,76.45
2018-08-24T01:07:32.680Z,76.56
2018-08-24T01:08:32.923Z,76.28
2018-08-24T01:09:33.355Z,76.08
2018-08-24T01:10:34.341Z,76.34
2018-08-24T01:11:34.679Z,76.32
2018-08-24T01:12:35.231Z,76.32
2018-08-24T01:13:35.470Z,76.45
2018-08-24T01:14:35.787Z,76.33
2018-08-24T01:15:36.054Z,76.25
2018-08-24T01:16:36.302Z,76.45
2018-08-24T01:17:36.724Z,76.24
2018-08-24T01:18:36.970Z,76.40
2018-08-24T01:19:37.246Z,76.54
2018-08-24T01:20:37.494Z,76.46
2018-08-24T01:21:37.896Z,76.06
2018-08-24T01:22:38.335Z,76.01
2018-08-24T01:23:38.624Z,76.41
2018-08-24T01:24:39.546Z,76.89
2018-08-24T01:24:48.259Z,76.32
2018-08-24T01:25:49.471Z,76.31
2018-08-24T01:26:50.268Z,76.38
2018-08-24T01:27:50.832Z,76.68
2018-08-24T01:28:49.958Z,76.91
2018-08-24T01:29:51.326Z,76.89
2018-08-24T01:30:51.387Z,76.84
2018-08-24T01:31:51.599Z,77.13
2018-08-24T01:32:51.942Z,77.24
2018-08-24T01:33:52.386Z,77.27
2018-08-24T01:34:52.606Z,77.63
2018-08-24T01:35:52.855Z,77.74
2018-08-24T01:36:53.672Z,77.71
2018-08-24T01:37:54.026Z,77.68
2018-08-24T01:38:54.396Z,77.79
2018-08-24T01:39:54.806Z,77.75
2018-08-24T01:40:55.347Z,78.15
2018-08-24T01:41:55.519Z,78.14
2018-08-24T01:42:55.873Z,77.96
2018-08-24T01:43:56.166Z,77.90
2018-08-24T01:44:55.534Z,78.13
2018-08-24T01:45:57.092Z,78.46
2018-08-24T01:46:57.419Z,78.03
2018-08-24T01:47:57.714Z,78.05
2018-08-24T01:48:57.986Z,78.25
2018-08-24T01:49:58.263Z,77.93
2018-08-24T01:50:58.553Z,77.57
2018-08-24T01:51:58.865Z,77.54
2018-08-24T01:52:59.242Z,77.62
2018-08-24T01:54:00.171Z,77.72
2018-08-24T01:55:00.435Z,77.37
2018-08-24T01:56:00.743Z,77.41
2018-08-24T01:57:00.996Z,77.08
2018-08-24T01:58:01.367Z,76.90
2018-08-24T01:59:01.777Z,76.88
2018-08-24T02:00:00.802Z,76.95
2018-08-24T02:01:02.422Z,77.06
2018-08-24T02:02:02.658Z,76.84
2018-08-24T02:03:02.907Z,77.04
2018-08-24T02:04:03.467Z,77.37
2018-08-24T02:05:03.968Z,77.08
2018-08-24T02:06:04.779Z,77.57
2018-08-24T02:07:05.023Z,77.36
2018-08-24T02:08:05.314Z,77.24
2018-08-24T02:09:05.718Z,77.34
2018-08-24T02:09:13.776Z,77.15
2018-08-24T02:10:14.956Z,77.16
2018-08-24T02:11:15.399Z,77.50
2018-08-24T02:12:16.358Z,76.87
2018-08-24T02:13:16.911Z,76.94
2018-08-24T02:14:17.772Z,76.46
2018-08-24T02:15:16.963Z,76.86
2018-08-24T02:16:18.177Z,76.65
2018-08-24T02:17:18.733Z,76.53
2018-08-24T02:18:18.967Z,76.32
2018-08-24T02:19:19.862Z,76.36
2018-08-24T02:20:20.866Z,76.39
2018-08-24T02:21:21.245Z,76.42
2018-08-24T02:22:21.539Z,76.14
2018-08-24T02:23:22.469Z,76.57
2018-08-24T02:24:23.357Z,76.91
2018-08-24T02:25:23.559Z,76.41
2018-08-24T02:26:24.077Z,76.33
2018-08-24T02:27:24.374Z,76.54
2018-08-24T02:28:24.771Z,76.51
2018-08-24T02:29:25.046Z,76.52
2018-08-24T02:30:25.904Z,76.92
2018-08-24T02:31:26.290Z,77.38
2018-08-24T02:32:26.650Z,77.20
2018-08-24T02:33:26.913Z,77.25
2018-08-24T02:34:27.151Z,77.13
2018-08-24T02:35:27.503Z,77.14
2018-08-24T02:36:28.329Z,76.98
2018-08-24T02:37:28.564Z,77.09
2018-08-24T02:38:28.896Z,77.45
2018-08-24T02:39:29.128Z,77.20
2018-08-24T02:40:29.355Z,77.32
2018-08-24T02:41:29.826Z,77.64
2018-08-24T02:42:29.996Z,77.75
2018-08-24T02:43:30.265Z,77.63
2018-08-24T02:44:30.753Z,77.92
2018-08-24T02:45:31.685Z,78.00
2018-08-24T02:46:32.091Z,77.72
2018-08-24T02:47:32.316Z,77.63
2018-08-24T02:48:32.634Z,77.84
2018-08-24T02:49:32.849Z,78.04
2018-08-24T02:50:33.143Z,77.87
2018-08-24T02:51:33.533Z,77.67
2018-08-24T02:52:34.010Z,77.66
2018-08-24T02:53:33.203Z,77.96
2018-08-24T02:54:34.416Z,77.87
2018-08-24T02:54:42.484Z,77.92
2018-08-24T02:55:43.823Z,77.87
2018-08-24T02:56:44.078Z,77.58
2018-08-24T02:57:44.328Z,77.60
2018-08-24T02:58:44.753Z,77.77
2018-08-24T02:59:44.943Z,77.75
2018-08-24T03:00:45.184Z,77.29
2018-08-24T03:01:45.428Z,77.22
2018-08-24T03:02:45.685Z,77.35
2018-08-24T03:03:45.910Z,77.18
2018-08-24T03:04:46.180Z,76.94
2018-08-24T03:05:46.354Z,76.85
2018-08-24T03:06:46.635Z,77.01
2018-08-24T03:07:46.875Z,76.96
2018-08-24T03:08:47.564Z,77.33
2018-08-24T03:09:47.832Z,77.27
2018-08-24T03:10:48.080Z,77.35
2018-08-24T03:11:48.338Z,77.52
2018-08-24T03:12:48.553Z,77.34
2018-08-24T03:13:48.823Z,77.44
2018-08-24T03:14:49.039Z,77.59
2018-08-24T03:15:49.328Z,77.53
2018-08-24T03:16:49.621Z,77.58
2018-08-24T03:17:49.883Z,77.53
2018-08-24T03:18:50.257Z,77.54
2018-08-24T03:19:50.563Z,77.62
2018-08-24T03:20:51.032Z,77.62
2018-08-24T03:21:51.373Z,77.39
2018-08-24T03:22:51.647Z,77.42
2018-08-24T03:23:51.875Z,77.57
2018-08-24T03:24:52.151Z,77.69
2018-08-24T03:25:51.770Z,77.80
2018-08-24T03:26:53.013Z,77.42
2018-08-24T03:27:53.487Z,77.30
2018-08-24T03:28:53.867Z,77.14
2018-08-24T03:29:54.150Z,77.07
2018-08-24T03:30:54.529Z,76.77
2018-08-24T03:31:54.866Z,77.00
2018-08-24T03:32:55.158Z,76.83
2018-08-24T03:33:55.406Z,76.65
2018-08-24T03:34:55.601Z,76.49
2018-08-24T03:35:55.803Z,76.61
2018-08-24T03:36:56.045Z,75.92
2018-08-24T03:37:56.237Z,75.39
2018-08-24T03:38:56.537Z,75.13
2018-08-24T03:39:05.335Z,75.05
2018-08-24T03:40:06.538Z,75.05
2018-08-24T03:41:06.928Z,75.14
2018-08-24T03:42:07.248Z,74.43
2018-08-24T03:43:07.635Z,74.22
2018-08-24T03:44:07.976Z,74.12
2018-08-24T03:45:08.162Z,74.19
2018-08-24T03:46:08.509Z,74.40
2018-08-24T03:47:08.771Z,74.04
2018-08-24T03:48:09.043Z,74.14
2018-08-24T03:49:09.505Z,73.62
2018-08-24T03:50:09.781Z,73.18
2018-08-24T03:51:10.080Z,72.98
2018-08-24T03:52:10.360Z,71.64
2018-08-24T03:53:10.706Z,71.56
2018-08-24T03:54:10.219Z,71.38
2018-08-24T03:55:11.438Z,71.72
2018-08-24T03:56:11.724Z,71.84
2018-08-24T03:57:11.949Z,71.43
2018-08-24T03:58:12.365Z,71.64
2018-08-24T03:59:13.139Z,71.32
2018-08-24T04:00:13.823Z,71.35
2018-08-24T04:01:14.401Z,71.72
2018-08-24T04:02:14.729Z,71.15
2018-08-24T04:03:15.232Z,70.68
2018-08-24T04:04:15.599Z,70.66
2018-08-24T04:05:15.895Z,70.57
2018-08-24T04:06:15.321Z,71.20
2018-08-24T04:07:16.538Z,71.05
2018-08-24T04:08:16.901Z,70.93
2018-08-24T04:09:17.230Z,70.96
2018-08-24T04:10:16.435Z,70.94
2018-08-24T04:11:17.739Z,71.29
2018-08-24T04:12:18.052Z,71.38
2018-08-24T04:13:19.011Z,71.20
2018-08-24T04:14:19.299Z,71.29
2018-08-24T04:15:19.750Z,71.61
2018-08-24T04:16:20.025Z,71.68
2018-08-24T04:17:20.283Z,71.90
2018-08-24T04:18:20.760Z,71.82
2018-08-24T04:19:21.352Z,71.61
2018-08-24T04:20:21.874Z,71.90
2018-08-24T04:21:22.135Z,71.97
2018-08-24T04:22:22.454Z,72.60
2018-08-24T04:23:22.677Z,72.72
2018-08-24T04:24:22.989Z,72.66
2018-08-24T04:25:23.266Z,73.03
2018-08-24T04:25:33.080Z,72.88
2018-08-24T04:26:32.286Z,73.07
2018-08-24T04:27:33.717Z,73.29
2018-08-24T04:28:33.940Z,73.51
2018-08-24T04:29:34.638Z,73.65
2018-08-24T04:30:34.879Z,73.65
2018-08-24T04:31:35.108Z,73.61
2018-08-24T04:32:35.437Z,73.81
2018-08-24T04:33:35.648Z,72.92
2018-08-24T04:34:36.595Z,72.35
2018-08-24T04:35:36.869Z,72.36
2018-08-24T04:36:36.902Z,72.72
2018-08-24T04:37:37.621Z,72.71
2018-08-24T04:38:38.170Z,72.18
2018-08-24T04:39:38.384Z,71.90
2018-08-24T04:40:38.626Z,71.25
2018-08-24T04:41:38.846Z,71.35
2018-08-24T04:43:05.794Z,71.63
2018-08-24T04:44:05.732Z,71.56
2018-08-24T04:45:07.224Z,71.71
2018-08-24T04:46:07.480Z,70.75
2018-08-24T04:47:07.789Z,70.44
2018-08-24T04:48:08.105Z,70.46
2018-08-24T04:49:08.906Z,70.55
2018-08-24T04:50:09.223Z,70.68
2018-08-24T04:51:09.940Z,70.68
2018-08-24T04:52:10.260Z,70.83
2018-08-24T04:53:10.732Z,71.05
2018-08-24T04:54:11.080Z,71.37
2018-08-24T04:55:11.353Z,70.63
2018-08-24T04:56:11.636Z,70.87
2018-08-24T04:57:11.909Z,71.26
2018-08-24T04:58:12.436Z,71.50
2018-08-24T04:59:11.725Z,71.79
2018-08-24T05:00:12.962Z,71.88
2018-08-24T05:01:12.327Z,71.59
2018-08-24T05:02:13.779Z,71.37
2018-08-24T05:03:14.298Z,71.29
2018-08-24T05:04:14.621Z,70.80
2018-08-24T05:05:15.307Z,70.66
2018-08-24T05:06:15.550Z,70.26
2018-08-24T05:07:15.775Z,69.98
2018-08-24T05:08:16.274Z,70.12
2018-08-24T05:09:16.547Z,69.81
2018-08-24T05:10:16.809Z,69.41
2018-08-24T05:11:17.086Z,69.26
2018-08-24T05:12:17.470Z,69.02
2018-08-24T05:13:18.141Z,69.17
2018-08-24T05:14:18.548Z,68.61
2018-08-24T05:15:18.910Z,68.59
2018-08-24T05:16:19.328Z,68.32
2018-08-24T05:17:19.640Z,68.46
2018-08-24T05:18:19.848Z,67.64
2018-08-24T05:19:20.094Z,67.47
2018-08-24T05:20:20.377Z,67.18
2018-08-24T05:21:20.810Z,66.95
2018-08-24T05:22:20.024Z,66.66
2018-08-24T05:23:21.234Z,66.49
2018-08-24T05:24:21.455Z,66.62
2018-08-24T05:25:21.709Z,66.36
2018-08-24T05:26:22.186Z,66.54
2018-08-24T05:27:22.676Z,67.01
2018-08-24T05:28:22.909Z,66.86
2018-08-24T05:29:23.276Z,66.42
2018-08-24T05:30:23.545Z,66.77
2018-08-24T05:30:31.656Z,66.83
2018-08-24T05:31:32.865Z,66.73
2018-08-24T05:32:33.106Z,67.16
2018-08-24T05:33:33.355Z,66.93
2018-08-24T05:34:33.617Z,67.14
2018-08-24T05:35:34.037Z,66.77
2018-08-24T05:36:33.217Z,66.95
2018-08-24T05:37:34.493Z,67.09
2018-08-24T05:38:34.689Z,67.19
2018-08-24T05:39:35.213Z,67.30
2018-08-24T05:40:34.350Z,67.40
2018-08-24T05:41:36.073Z,67.39
2018-08-24T05:42:36.447Z,67.51
2018-08-24T05:43:36.705Z,67.31
2018-08-24T05:44:36.978Z,67.31
2018-08-24T05:45:37.301Z,67.12
2018-08-24T05:46:37.548Z,67.71
2018-08-24T05:47:37.844Z,67.23
2018-08-24T05:48:38.483Z,67.10
2018-08-24T05:49:37.767Z,67.19
2018-08-24T05:50:39.070Z,67.55
2018-08-24T05:51:39.632Z,67.17
2018-08-24T05:52:39.900Z,67.43
2018-08-24T05:53:40.137Z,67.75
2018-08-24T05:54:40.502Z,67.08
2018-08-24T05:55:40.758Z,67.97
2018-08-24T05:56:40.011Z,67.77
2018-08-24T05:57:41.259Z,67.12
2018-08-24T05:58:41.585Z,67.29
2018-08-24T05:59:42.249Z,67.09
2018-08-24T06:00:43.147Z,67.03
2018-08-24T06:01:43.669Z,67.09
2018-08-24T06:02:43.891Z,67.16
2018-08-24T06:03:44.450Z,66.84
2018-08-24T06:04:44.967Z,67.41
2018-08-24T06:05:45.351Z,67.07
2018-08-24T06:06:44.566Z,67.43
2018-08-24T06:07:45.827Z,67.47
2018-08-24T06:08:46.058Z,67.16
2018-08-24T06:09:46.326Z,67.61
2018-08-24T06:10:46.593Z,67.27
2018-08-24T06:11:46.982Z,67.39
2018-08-24T06:12:47.274Z,67.11
2018-08-24T06:13:47.504Z,67.66
2018-08-24T06:14:47.696Z,67.46
2018-08-24T06:15:47.934Z,67.31
2018-08-24T06:16:47.182Z,67.69
2018-08-24T06:17:47.331Z,67.73
2018-08-24T06:18:48.588Z,67.67
2018-08-24T06:19:48.824Z,67.69
2018-08-24T06:19:57.471Z,67.68
2018-08-24T06:20:58.821Z,67.66
2018-08-24T06:21:59.263Z,67.91
2018-08-24T06:22:59.687Z,67.68
2018-08-24T06:24:00.106Z,67.49
2018-08-24T06:24:59.506Z,67.68
2018-08-24T06:26:00.827Z,67.99
2018-08-24T06:27:01.451Z,67.65
2018-08-24T06:28:00.712Z,67.57
2018-08-24T06:29:01.958Z,67.24
2018-08-24T06:30:02.608Z,67.44
2018-08-24T06:31:02.900Z,68.01
2018-08-24T06:32:03.149Z,68.83
2018-08-24T06:33:03.166Z,68.85
2018-08-24T06:34:03.428Z,69.86
2018-08-24T06:35:03.632Z,70.53
2018-08-24T06:36:03.969Z,71.56
2018-08-24T06:37:03.858Z,71.80
2018-08-24T06:38:04.255Z,72.45
2018-08-24T06:39:05.477Z,72.37
2018-08-24T06:40:05.738Z,72.46
2018-08-24T06:41:06.004Z,72.95
2018-08-24T06:42:06.333Z,73.18
2018-08-24T06:43:06.628Z,74.04
2018-08-24T06:44:06.905Z,74.25
2018-08-24T06:45:07.295Z,73.51
2018-08-24T06:46:07.521Z,73.83
2018-08-24T06:47:07.889Z,74.34
2018-08-24T06:48:07.061Z,74.90
2018-08-24T06:49:08.405Z,74.39
2018-08-24T06:50:08.759Z,75.08
2018-08-24T06:51:09.077Z,75.17
2018-08-24T06:52:09.324Z,74.75
2018-08-24T06:53:09.712Z,75.23
2018-08-24T06:54:08.868Z,76.27
2018-08-24T06:55:10.119Z,76.27
2018-08-24T06:56:10.442Z,75.68
2018-08-24T06:57:10.719Z,75.94
2018-08-24T06:58:10.989Z,75.99
2018-08-24T06:59:11.214Z,75.36
2018-08-24T07:00:11.447Z,76.03
2018-08-24T07:01:11.681Z,76.52
2018-08-24T07:02:11.860Z,76.90
2018-08-24T07:03:12.247Z,76.73
2018-08-24T07:04:12.556Z,77.27
2018-08-24T07:05:12.761Z,77.35
2018-08-24T07:06:13.026Z,77.68
2018-08-24T07:07:13.360Z,77.80
2018-08-24T07:08:13.777Z,77.37
2018-08-24T07:09:14.063Z,78.03
2018-08-24T07:09:22.918Z,77.07
2018-08-24T07:10:24.101Z,77.08
2018-08-24T07:11:24.479Z,76.94
2018-08-24T07:12:24.849Z,76.81
2018-08-24T07:13:24.230Z,77.41
2018-08-24T07:14:25.524Z,77.04
2018-08-24T07:15:25.880Z,76.44
2018-08-24T07:16:26.142Z,77.51
2018-08-24T07:17:26.475Z,77.66
2018-08-24T07:18:26.646Z,77.28
2018-08-24T07:19:27.039Z,77.07
2018-08-24T07:20:27.330Z,77.20
2018-08-24T07:21:27.594Z,76.87
2018-08-24T07:22:28.155Z,76.30
2018-08-24T07:23:28.381Z,76.66
2018-08-24T07:24:28.858Z,76.28
2018-08-24T07:25:29.251Z,75.51
2018-08-24T07:26:29.543Z,75.50
2018-08-24T07:27:29.809Z,75.49
2018-08-24T07:28:30.003Z,75.46
2018-08-24T07:29:30.247Z,75.46
2018-08-24T07:30:30.503Z,75.59
2018-08-24T07:31:30.797Z,75.81
2018-08-24T07:32:31.301Z,75.68
2018-08-24T07:33:31.909Z,75.39
2018-08-24T07:34:32.232Z,75.03
2018-08-24T07:35:32.547Z,75.18
2018-08-24T07:36:32.793Z,75.60
2018-08-24T07:37:33.021Z,76.47
2018-08-24T07:38:33.270Z,75.95
2018-08-24T07:39:33.578Z,76.08
2018-08-24T07:40:33.866Z,76.13
2018-08-24T07:41:34.237Z,76.96
2018-08-24T07:42:33.160Z,77.38
2018-08-24T07:43:34.513Z,78.53
2018-08-24T07:44:34.812Z,78.58
2018-08-24T07:45:35.040Z,79.77
2018-08-24T07:46:35.300Z,79.65
2018-08-24T07:47:35.606Z,80.58
2018-08-24T07:48:35.000Z,80.50
2018-08-24T07:49:36.251Z,80.25
2018-08-24T07:50:36.468Z,80.72
2018-08-24T07:51:36.887Z,81.68
2018-08-24T07:52:37.325Z,81.21
2018-08-24T07:53:37.987Z,81.83
2018-08-24T07:54:38.220Z,81.16
2018-08-24T07:55:38.456Z,82.95
2018-08-24T07:55:47.216Z,82.02
2018-08-24T07:56:47.900Z,81.87
2018-08-24T07:57:48.151Z,82.18
2018-08-24T07:58:48.602Z,81.62
2018-08-24T07:59:48.812Z,81.65
2018-08-24T08:00:49.034Z,81.34
2018-08-24T08:01:49.457Z,82.39
2018-08-24T08:02:49.689Z,82.14
2018-08-24T08:03:49.983Z,82.46
2018-08-24T08:04:50.429Z,82.51
2018-08-24T08:05:50.699Z,82.29
2018-08-24T08:06:50.926Z,79.64
2018-08-24T08:07:51.124Z,78.94
2018-08-24T08:08:51.467Z,79.12
2018-08-24T08:09:51.763Z,77.36
2018-08-24T08:10:52.133Z,76.25
2018-08-24T08:11:52.368Z,76.19
2018-08-24T08:12:52.610Z,74.53
2018-08-24T08:13:52.994Z,75.51
2018-08-24T08:14:53.020Z,74.09
2018-08-24T08:15:53.253Z,74.02
2018-08-24T08:16:53.504Z,73.62
2018-08-24T08:17:53.744Z,75.33
2018-08-24T08:18:54.172Z,73.16
2018-08-24T08:19:54.574Z,72.16
2018-08-24T08:20:54.935Z,72.36
2018-08-24T08:21:55.346Z,71.83
2018-08-24T08:22:55.663Z,71.25
2018-08-24T08:23:56.136Z,71.08
2018-08-24T08:24:56.392Z,70.40
2018-08-24T08:25:56.820Z,70.65
2018-08-24T08:26:57.124Z,71.52
2018-08-24T08:27:57.405Z,71.90
2018-08-24T08:28:57.786Z,71.58
2018-08-24T08:29:58.019Z,72.02
2018-08-24T08:30:58.315Z,72.29
2018-08-24T08:31:58.548Z,72.14
2018-08-24T08:32:58.773Z,71.91
2018-08-24T08:33:59.318Z,71.88
2018-08-24T08:34:59.888Z,72.75
2018-08-24T08:36:00.264Z,73.48
2018-08-24T08:37:00.700Z,73.20
2018-08-24T08:38:00.956Z,74.65
2018-08-24T08:39:01.320Z,73.76
2018-08-24T08:40:00.482Z,74.18
2018-08-24T08:41:02.117Z,74.64
2018-08-24T08:41:10.198Z,75.02
2018-08-24T08:42:11.657Z,75.09
2018-08-24T08:43:12.102Z,74.34
2018-08-24T08:44:12.428Z,74.90
2018-08-24T08:45:12.831Z,74.95
2018-08-24T08:46:12.299Z,75.04
2018-08-24T08:47:13.812Z,74.65
2018-08-24T08:48:14.467Z,75.99
2018-08-24T08:49:14.734Z,76.53
2018-08-24T08:50:15.017Z,75.88
2018-08-24T08:51:15.310Z,75.54
2018-08-24T08:52:15.952Z,75.39
2018-08-24T08:53:16.206Z,76.03
2018-08-24T08:54:17.036Z,76.20
2018-08-24T08:55:17.224Z,76.05
2018-08-24T08:56:17.462Z,75.71
2018-08-24T08:57:17.548Z,76.50
2018-08-24T08:58:18.092Z,74.89
2018-08-24T08:59:18.942Z,75.24
2018-08-24T09:00:19.414Z,75.44
2018-08-24T09:01:19.972Z,75.17
2018-08-24T09:02:20.276Z,75.08
2018-08-24T09:03:20.524Z,74.65
2018-08-24T09:04:20.755Z,74.66
2018-08-24T09:05:20.784Z,74.66
2018-08-24T09:06:21.231Z,74.62
2018-08-24T09:07:22.414Z,74.98
2018-08-24T09:08:20.751Z,74.29
2018-08-24T09:09:21.973Z,74.15
2018-08-24T09:10:22.250Z,74.35
2018-08-24T09:11:23.011Z,74.41
2018-08-24T09:12:23.455Z,73.55
2018-08-24T09:13:23.741Z,73.96
2018-08-24T09:14:23.981Z,73.59
2018-08-24T09:15:24.176Z,74.19
2018-08-24T09:16:24.375Z,73.88
2018-08-24T09:17:24.645Z,73.28
2018-08-24T09:18:25.111Z,72.34
2018-08-24T09:19:24.489Z,73.08
2018-08-24T09:20:25.808Z,72.27
2018-08-24T09:21:26.084Z,72.06
2018-08-24T09:22:27.059Z,72.51
2018-08-24T09:23:27.316Z,72.73
2018-08-24T09:24:27.558Z,71.86
2018-08-24T09:25:27.967Z,71.90
2018-08-24T09:26:27.203Z,72.09
2018-08-24T09:27:28.522Z,72.09
2018-08-24T09:27:37.235Z,72.17
2018-08-24T09:28:37.836Z,72.27
2018-08-24T09:29:38.058Z,70.78
2018-08-24T09:30:38.388Z,69.70
2018-08-24T09:31:38.566Z,69.53
2018-08-24T09:32:39.086Z,70.27
2018-08-24T09:33:38.271Z,69.39
2018-08-24T09:34:39.574Z,70.33
2018-08-24T09:35:38.730Z,70.95
2018-08-24T09:36:39.966Z,68.92
2018-08-24T09:37:40.170Z,68.56
2018-08-24T09:38:40.407Z,68.80
2018-08-24T09:39:40.570Z,68.38
2018-08-24T09:40:40.878Z,68.44
2018-08-24T09:41:41.225Z,67.90
2018-08-24T09:42:41.784Z,68.50
2018-08-24T09:43:42.009Z,68.18
2018-08-24T09:44:42.403Z,67.60
2018-08-24T09:45:42.668Z,67.69
2018-08-24T09:46:43.158Z,66.42
2018-08-24T09:47:43.564Z,66.17
2018-08-24T09:48:43.776Z,66.05
2018-08-24T09:49:44.410Z,64.73
2018-08-24T09:50:44.671Z,64.67
2018-08-24T09:51:45.031Z,64.22
2018-08-24T09:52:45.507Z,64.68
2018-08-24T09:53:45.913Z,64.35
2018-08-24T09:54:46.194Z,64.41
2018-08-24T09:55:46.439Z,65.43
2018-08-24T09:56:47.190Z,64.11
2018-08-24T09:57:46.960Z,61.46
2018-08-24T09:58:48.146Z,61.65
2018-08-24T09:59:48.459Z,60.81
2018-08-24T10:00:49.328Z,60.15
2018-08-24T10:01:49.868Z,60.57
2018-08-24T10:02:50.190Z,59.68
2018-08-24T10:03:49.759Z,59.79
2018-08-24T10:04:51.556Z,59.54
2018-08-24T10:05:51.811Z,59.42
2018-08-24T10:06:52.211Z,59.11
2018-08-24T10:07:51.507Z,59.00
2018-08-24T10:08:52.803Z,59.01
2018-08-24T10:09:53.140Z,58.49
2018-08-24T10:10:53.329Z,58.18
2018-08-24T10:11:53.550Z,58.43
2018-08-24T10:12:54.028Z,57.68
2018-08-24T10:13:54.208Z,56.36
2018-08-24T10:14:54.518Z,56.77
2018-08-24T10:15:03.389Z,55.40
2018-08-24T10:16:03.712Z,55.44
2018-08-24T10:17:04.090Z,55.91
2018-08-24T10:18:04.314Z,56.44
2018-08-24T10:19:04.511Z,56.79
2018-08-24T10:20:04.909Z,57.46
2018-08-24T10:21:05.255Z,55.70
2018-08-24T10:22:05.923Z,54.84
2018-08-24T10:23:06.512Z,54.85
2018-08-24T10:24:06.717Z,54.98
2018-08-24T10:25:06.931Z,55.17
2018-08-24T10:26:07.045Z,53.67
2018-08-24T10:27:07.237Z,53.53
2018-08-24T10:28:07.490Z,53.38
2018-08-24T10:29:07.764Z,53.34
2018-08-24T10:30:07.350Z,53.68
2018-08-24T10:31:08.538Z,53.29
2018-08-24T10:32:08.744Z,53.04
2018-08-24T10:33:09.026Z,53.52
2018-08-24T10:34:09.300Z,53.63
2018-08-24T10:35:09.942Z,52.99
2018-08-24T10:36:10.211Z,53.64
2018-08-24T10:37:10.428Z,52.69
2018-08-24T10:38:10.783Z,52.47
2018-08-24T10:39:11.439Z,51.98
2018-08-24T10:40:10.755Z,52.29
2018-08-24T10:41:12.110Z,52.39
2018-08-24T10:42:12.407Z,51.63
2018-08-24T10:43:12.888Z,52.33
2018-08-24T10:44:13.191Z,52.48
2018-08-24T10:45:13.444Z,52.62
2018-08-24T10:46:13.903Z,52.10
2018-08-24T10:47:14.694Z,52.17
2018-08-24T10:48:14.379Z,52.34
2018-08-24T10:49:15.628Z,51.63
2018-08-24T10:50:15.895Z,52.60
2018-08-24T10:51:16.221Z,52.61
2018-08-24T10:52:15.542Z,52.04
2018-08-24T10:53:17.117Z,51.47
2018-08-24T10:54:17.392Z,51.37
2018-08-24T10:55:17.797Z,51.60
2018-08-24T10:56:18.274Z,51.36
2018-08-24T10:57:18.832Z,51.29
2018-08-24T10:58:19.071Z,51.29
2018-08-24T10:59:19.690Z,51.46
2018-08-24T11:00:20.393Z,51.28
2018-08-24T11:00:29.106Z,51.95
2018-08-24T11:01:30.298Z,51.93
2018-08-24T11:02:31.271Z,51.40
2018-08-24T11:03:31.998Z,50.76
2018-08-24T11:04:32.380Z,50.99
2018-08-24T11:05:33.085Z,51.43
2018-08-24T11:06:32.426Z,51.58
2018-08-24T11:07:33.839Z,51.49
2018-08-24T11:08:33.192Z,52.04
2018-08-24T11:09:34.443Z,52.15
2018-08-24T11:10:34.734Z,51.40
2018-08-24T11:11:35.118Z,51.61
2018-08-24T11:12:34.506Z,51.07
2018-08-24T11:13:35.981Z,51.36
2018-08-24T11:14:36.459Z,50.63
2018-08-24T11:15:36.701Z,50.45
2018-08-24T11:16:37.227Z,49.99
2018-08-24T11:17:37.646Z,50.17
2018-08-24T11:18:38.350Z,50.31
2018-08-24T11:19:38.555Z,50.08
2018-08-24T11:20:38.754Z,50.14
2018-08-24T11:21:39.030Z,49.13
2018-08-24T11:22:39.398Z,49.84
2018-08-24T11:23:39.737Z,49.75
2018-08-24T11:24:40.126Z,50.40
2018-08-24T11:25:40.704Z,50.01
2018-08-24T11:26:40.960Z,49.69
2018-08-24T11:27:40.293Z,49.64
2018-08-24T11:28:41.695Z,49.74
2018-08-24T11:29:40.965Z,49.88
2018-08-24T11:30:42.613Z,50.26
2018-08-24T11:31:42.927Z,50.65
2018-08-24T11:32:43.138Z,50.50
2018-08-24T11:33:43.727Z,50.61
2018-08-24T11:34:44.020Z,50.33
2018-08-24T11:35:44.608Z,49.60
2018-08-24T11:36:44.990Z,49.94
2018-08-24T11:37:45.435Z,48.26
2018-08-24T11:38:46.297Z,48.67
2018-08-24T11:39:46.626Z,48.43
2018-08-24T11:40:46.889Z,47.71
2018-08-24T11:41:47.735Z,49.45
2018-08-24T11:42:47.197Z,52.04
2018-08-24T11:43:48.616Z,52.34
2018-08-24T11:44:49.227Z,52.82
2018-08-24T11:45:49.517Z,53.52
2018-08-24T11:46:49.884Z,54.36
2018-08-24T11:47:50.176Z,54.35
2018-08-24T11:48:49.317Z,54.28
2018-08-24T11:49:50.640Z,54.32
2018-08-24T11:49:58.722Z,54.32
2018-08-24T11:50:59.876Z,54.37
2018-08-24T11:52:00.248Z,54.76
2018-08-24T11:53:01.036Z,54.98
2018-08-24T11:54:01.491Z,54.66
2018-08-24T11:55:01.040Z,55.06
2018-08-24T11:56:02.604Z,54.52
2018-08-24T11:57:03.048Z,54.59
2018-08-24T11:58:03.528Z,54.19
2018-08-24T11:59:03.850Z,54.10
2018-08-24T12:00:04.521Z,54.18
2018-08-24T12:01:05.148Z,53.97
2018-08-24T12:02:05.527Z,54.60
2018-08-24T12:03:04.834Z,55.08
2018-08-24T12:04:06.330Z,55.24
2018-08-24T12:05:06.670Z,54.18
2018-08-24T12:06:07.126Z,53.95
2018-08-24T12:07:07.758Z,54.70
2018-08-24T12:08:08.245Z,55.11
2018-08-24T12:09:07.731Z,54.84
2018-08-24T12:10:09.296Z,53.97
2018-08-24T12:11:09.833Z,54.26
2018-08-24T12:12:10.509Z,54.78
2018-08-24T12:13:10.383Z,53.21
2018-08-24T12:14:11.749Z,53.46
2018-08-24T12:15:11.298Z,53.24
2018-08-24T12:16:12.959Z,53.24
2018-08-24T12:17:13.459Z,52.42
2018-08-24T12:18:14.191Z,51.03
2018-08-24T12:19:14.655Z,51.45
2018-08-24T12:20:15.022Z,52.15
2018-08-24T12:21:15.482Z,51.84
2018-08-24T12:22:15.178Z,51.82
2018-08-24T12:23:16.556Z,52.69
2018-08-24T12:24:17.004Z,52.46
2018-08-24T12:25:16.458Z,51.87
2018-08-24T12:26:18.184Z,52.31
2018-08-24T12:27:18.825Z,53.04
2018-08-24T12:28:18.143Z,52.93
2018-08-24T12:29:20.099Z,52.69
2018-08-24T12:30:20.759Z,52.36
2018-08-24T12:31:21.256Z,52.80
2018-08-24T12:32:21.667Z,52.28
2018-08-24T12:33:22.062Z,53.09
2018-08-24T12:34:22.434Z,52.57
2018-08-24T12:35:22.905Z,52.61
2018-08-24T12:36:23.580Z,52.30
2018-08-24T12:37:23.952Z,52.72
2018-08-24T12:38:24.643Z,52.79
2018-08-24T12:39:25.101Z,52.41
2018-08-24T12:40:25.545Z,53.24
2018-08-24T12:40:35.545Z,52.34
2018-08-24T12:41:37.049Z,52.47
2018-08-24T12:42:37.379Z,52.62
2018-08-24T12:43:37.882Z,52.49
2018-08-24T12:44:37.454Z,52.20